Time;durP1;ratioP1;P1;durP2;ratioP2;P2;SDS_P1;SDS_P2;PMS_P1;PMS_P2;Temp;Humidity;BMP_temperature;BMP_pressure;BME280_temperature;BME280_humidity;BME280_pressure;Samples;Min_cycle;Max_cycle;Signal;HPM_P1;HPM_P2
2021/12/26 00:01:26;;;;;;;3.50;1.77;;;5.80;40.70;;;;;;5015801;28;20452;-77
2021/12/26 00:03:52;;;;;;;2.00;1.50;;;5.80;40.70;;;;;;5015882;28;20037;-76
2021/12/26 00:06:25;;;;;;;2.83;1.92;;;5.80;40.60;;;;;;4996959;28;20030;-76
2021/12/26 00:08:54;;;;;;;3.05;1.88;;;5.80;40.50;;;;;;5015452;28;20038;-76
2021/12/26 00:11:21;;;;;;;2.28;1.70;;;5.90;40.40;;;;;;5015379;28;20026;-77
2021/12/26 00:13:47;;;;;;;2.50;1.80;;;5.90;40.50;;;;;;5015874;28;20026;-76
2021/12/26 00:16:13;;;;;;;3.47;2.25;;;5.90;40.50;;;;;;5015165;28;20034;-76
2021/12/26 00:18:45;;;;;;;1.77;1.60;;;5.90;40.60;;;;;;5000138;28;20064;-77
2021/12/26 00:21:13;;;;;;;2.28;1.90;;;5.80;40.70;;;;;;5001044;28;20042;-76
2021/12/26 00:23:39;;;;;;;2.35;1.65;;;5.90;40.70;;;;;;5000617;28;20038;-76
2021/12/26 00:26:05;;;;;;;2.25;1.60;;;5.90;40.70;;;;;;5001574;28;20400;-77
2021/12/26 00:28:32;;;;;;;2.55;1.73;;;5.90;40.70;;;;;;5017874;28;20046;-76
2021/12/26 00:30:58;;;;;;;3.05;1.88;;;5.90;40.60;;;;;;5018930;28;20640;-77
2021/12/26 00:33:25;;;;;;;2.00;1.80;;;5.80;40.70;;;;;;5001254;28;20041;-76
2021/12/26 00:35:51;;;;;;;1.73;1.60;;;5.80;40.70;;;;;;5000988;28;20032;-76
2021/12/26 00:38:18;;;;;;;2.75;1.80;;;5.90;40.80;;;;;;5001585;28;20042;-76
2021/12/26 00:40:44;;;;;;;2.05;1.73;;;5.90;40.80;;;;;;5002017;28;20048;-76
2021/12/26 00:43:11;;;;;;;4.05;1.70;;;5.90;40.90;;;;;;5001597;28;20387;-76
2021/12/26 00:45:39;;;;;;;2.22;1.80;;;5.90;41.10;;;;;;5019589;28;20308;-78
2021/12/26 00:48:07;;;;;;;1.50;1.40;;;5.90;41.20;;;;;;5002019;28;20511;-78
2021/12/26 00:50:34;;;;;;;2.22;1.73;;;5.90;41.20;;;;;;5001104;28;20041;-76
2021/12/26 00:53:01;;;;;;;2.58;1.50;;;5.90;41.20;;;;;;5018181;28;20080;-77
2021/12/26 00:55:28;;;;;;;2.53;1.60;;;6.00;41.30;;;;;;5018156;28;20124;-77
2021/12/26 00:57:54;;;;;;;2.35;1.50;;;6.00;41.90;;;;;;5018030;28;20040;-76
2021/12/26 01:00:24;;;;;;;2.25;1.70;;;6.10;41.30;;;;;;4997809;28;20033;-76
2021/12/26 01:02:50;;;;;;;3.25;1.75;;;6.10;41.20;;;;;;4997918;28;20036;-76
2021/12/26 01:05:19;;;;;;;3.42;1.90;;;6.20;41.30;;;;;;5013693;28;20030;-77
2021/12/26 01:10:11;;;;;;;2.03;1.60;;;6.20;41.30;;;;;;5008200;28;20034;-76
2021/12/26 01:12:39;;;;;;;2.75;1.90;;;6.20;41.40;;;;;;5000321;28;20083;-76
2021/12/26 01:15:09;;;;;;;2.65;1.60;;;6.20;41.40;;;;;;5000420;28;20030;-77
2021/12/26 01:17:41;;;;;;;3.03;1.77;;;6.20;41.50;;;;;;4985497;28;20100;-77
2021/12/26 01:20:25;;;;;;;3.13;1.60;;;6.20;41.50;;;;;;4984469;28;20041;-76
2021/12/26 01:22:52;;;;;;;1.88;1.73;;;6.20;41.50;;;;;;5011596;28;20030;-76
2021/12/26 01:25:17;;;;;;;2.13;1.73;;;6.20;41.50;;;;;;4999934;28;20658;-77
2021/12/26 01:27:44;;;;;;;2.53;1.70;;;6.20;41.50;;;;;;5000700;28;20046;-76
2021/12/26 01:30:10;;;;;;;3.63;1.63;;;6.20;41.60;;;;;;4984141;28;20041;-76
2021/12/26 01:32:41;;;;;;;2.28;1.80;;;6.20;41.60;;;;;;5013083;28;20037;-76
2021/12/26 01:35:34;;;;;;;2.33;1.60;;;6.20;41.60;;;;;;5013983;28;20042;-76
2021/12/26 01:38:23;;;;;;;2.35;1.67;;;6.20;41.70;;;;;;5016837;28;20033;-77
2021/12/26 01:41:09;;;;;;;1.42;1.33;;;6.20;41.80;;;;;;4997542;28;20034;-77
2021/12/26 01:44:03;;;;;;;1.55;1.40;;;6.20;41.70;;;;;;5001326;28;20602;-76
2021/12/26 01:46:44;;;;;;;1.95;1.75;;;6.30;41.70;;;;;;4999524;28;20064;-77
2021/12/26 01:49:20;;;;;;;1.90;1.60;;;6.30;41.50;;;;;;4984157;28;20034;-76
2021/12/26 01:51:50;;;;;;;1.60;1.50;;;6.40;41.50;;;;;;4997373;28;20024;-77
2021/12/26 01:54:32;;;;;;;2.05;1.80;;;6.40;41.40;;;;;;5017715;28;20029;-76
2021/12/26 01:57:00;;;;;;;2.38;1.73;;;6.40;41.40;;;;;;4999056;28;20786;-76
2021/12/26 01:59:27;;;;;;;1.85;1.67;;;6.40;41.40;;;;;;5000547;28;20034;-76
2021/12/26 02:02:05;;;;;;;2.75;2.03;;;6.40;41.30;;;;;;4999276;28;20036;-76
2021/12/26 02:04:35;;;;;;;2.65;1.70;;;6.30;41.20;;;;;;4998813;28;20034;-76
2021/12/26 02:07:03;;;;;;;3.50;1.80;;;6.30;41.40;;;;;;5013222;28;20037;-76
2021/12/26 02:09:30;;;;;;;1.75;1.65;;;6.30;41.40;;;;;;4997169;28;20033;-76
2021/12/26 02:11:59;;;;;;;2.45;1.85;;;6.30;41.30;;;;;;4996973;28;20024;-75
2021/12/26 02:14:26;;;;;;;2.25;1.88;;;6.30;41.30;;;;;;4998827;28;20504;-76
2021/12/26 02:17:18;;;;;;;2.15;1.70;;;6.30;41.30;;;;;;5004649;28;20041;-76
2021/12/26 02:19:45;;;;;;;3.55;2.08;;;6.30;41.40;;;;;;5003148;28;20020;-76
2021/12/26 02:22:16;;;;;;;2.70;2.20;;;6.30;41.40;;;;;;5016662;28;20041;-76
2021/12/26 02:25:09;;;;;;;2.47;1.92;;;6.30;41.50;;;;;;4997333;28;20090;-76
2021/12/26 02:27:32;;;;;;;2.90;1.98;;;6.30;41.50;;;;;;4994842;28;20050;-76
2021/12/26 02:30:15;;;;;;;1.92;1.60;;;6.30;41.50;;;;;;4996140;28;20022;-76
2021/12/26 02:32:48;;;;;;;2.42;1.95;;;6.30;41.50;;;;;;4984407;28;20029;-75
2021/12/26 02:35:15;;;;;;;2.67;1.80;;;6.30;41.60;;;;;;4999244;28;20036;-75
2021/12/26 02:37:41;;;;;;;1.63;1.52;;;6.40;41.60;;;;;;4994694;28;20033;-76
2021/12/26 02:40:09;;;;;;;2.75;2.00;;;6.40;41.60;;;;;;4998854;28;20025;-76
2021/12/26 02:42:35;;;;;;;2.00;1.77;;;6.40;41.50;;;;;;4995510;28;20073;-75
2021/12/26 02:45:01;;;;;;;3.50;2.10;;;6.40;41.50;;;;;;4983698;28;20408;-77
2021/12/26 02:47:44;;;;;;;1.73;1.60;;;6.50;41.60;;;;;;4998460;28;20041;-76
2021/12/26 02:50:17;;;;;;;2.17;1.80;;;6.50;41.70;;;;;;5011484;28;20666;-76
2021/12/26 02:52:43;;;;;;;1.80;1.70;;;6.50;41.60;;;;;;4999462;28;20088;-77
2021/12/26 02:55:11;;;;;;;2.45;1.80;;;6.50;41.60;;;;;;4997122;28;20496;-76
2021/12/26 02:57:38;;;;;;;1.95;1.75;;;6.50;41.70;;;;;;4995387;28;20034;-76
2021/12/26 03:00:11;;;;;;;2.55;1.90;;;6.50;41.70;;;;;;4997954;28;20044;-76
2021/12/26 03:02:41;;;;;;;2.75;1.58;;;6.50;41.70;;;;;;4999553;28;20041;-76
2021/12/26 03:05:09;;;;;;;2.40;2.08;;;6.50;41.70;;;;;;4999797;28;20409;-76
2021/12/26 03:07:35;;;;;;;2.00;1.65;;;6.50;41.70;;;;;;4996304;28;20034;-75
2021/12/26 03:10:01;;;;;;;2.03;1.83;;;6.40;41.80;;;;;;4998448;28;20025;-76
2021/12/26 03:12:29;;;;;;;2.30;2.10;;;6.40;41.80;;;;;;4997522;28;20515;-76
2021/12/26 03:14:55;;;;;;;2.13;1.92;;;6.50;41.90;;;;;;5015950;28;20038;-76
2021/12/26 03:17:21;;;;;;;1.90;1.80;;;6.40;41.90;;;;;;4998281;28;20040;-76
2021/12/26 03:19:47;;;;;;;2.15;1.95;;;6.40;41.90;;;;;;5016167;28;20034;-76
2021/12/26 03:22:15;;;;;;;4.20;2.03;;;6.50;41.90;;;;;;5015753;28;20069;-76
2021/12/26 03:24:44;;;;;;;2.67;1.80;;;6.40;41.90;;;;;;4998644;28;20026;-76
2021/12/26 03:27:12;;;;;;;1.77;1.50;;;6.50;42.00;;;;;;5012283;28;20038;-75
2021/12/26 03:29:39;;;;;;;4.10;2.30;;;6.50;41.90;;;;;;4999441;28;20085;-76
2021/12/26 03:32:11;;;;;;;2.35;1.70;;;6.50;41.80;;;;;;4998545;28;20046;-75
2021/12/26 03:34:45;;;;;;;2.72;2.38;;;6.60;41.80;;;;;;4998960;28;20038;-76
2021/12/26 03:37:11;;;;;;;2.60;1.90;;;6.60;41.80;;;;;;5015766;28;20042;-76
2021/12/26 03:39:37;;;;;;;3.10;1.70;;;6.60;41.80;;;;;;4983307;28;20068;-76
2021/12/26 03:42:04;;;;;;;2.47;1.98;;;6.50;41.80;;;;;;4983221;28;20038;-77
2021/12/26 03:44:30;;;;;;;3.67;2.40;;;6.60;41.80;;;;;;4995371;28;20065;-76
2021/12/26 03:46:56;;;;;;;2.30;1.90;;;6.60;41.80;;;;;;4995518;28;20042;-75
2021/12/26 03:49:22;;;;;;;2.80;2.17;;;6.60;41.80;;;;;;4998461;28;20526;-75
2021/12/26 03:51:48;;;;;;;2.78;2.10;;;6.60;41.80;;;;;;5015624;28;20029;-75
2021/12/26 03:54:15;;;;;;;2.45;2.13;;;6.50;41.70;;;;;;4997896;28;20041;-75
2021/12/26 03:56:41;;;;;;;2.90;2.10;;;6.60;41.80;;;;;;5001094;28;20084;-75
2021/12/26 03:59:15;;;;;;;2.45;1.83;;;6.50;41.90;;;;;;5000676;28;20074;-76
2021/12/26 04:01:41;;;;;;;3.28;2.08;;;6.50;42.00;;;;;;5002307;28;20389;-75
2021/12/26 04:04:07;;;;;;;2.78;1.90;;;6.50;41.90;;;;;;5001670;28;20030;-75
2021/12/26 04:06:33;;;;;;;3.30;1.80;;;6.50;41.90;;;;;;5000676;28;20028;-75
2021/12/26 04:08:59;;;;;;;2.60;1.50;;;6.50;42.00;;;;;;5002697;28;20081;-76
2021/12/26 04:11:25;;;;;;;2.33;1.92;;;6.50;42.10;;;;;;5002374;28;20030;-75
2021/12/26 04:13:51;;;;;;;3.70;2.00;;;6.60;42.10;;;;;;5001365;28;20076;-75
2021/12/26 04:16:18;;;;;;;3.08;2.17;;;6.60;42.10;;;;;;4996364;28;20064;-76
2021/12/26 04:18:45;;;;;;;1.98;1.80;;;6.60;42.10;;;;;;5001115;28;20036;-76
2021/12/26 04:21:11;;;;;;;2.33;1.65;;;6.70;42.10;;;;;;4984948;28;20037;-75
2021/12/26 04:23:54;;;;;;;2.53;2.08;;;6.70;42.10;;;;;;5000835;28;20523;-75
2021/12/26 04:26:21;;;;;;;2.22;1.90;;;6.70;42.00;;;;;;5018534;28;20065;-75
2021/12/26 04:28:47;;;;;;;2.35;1.58;;;6.70;41.90;;;;;;5018126;28;20065;-76
2021/12/26 04:31:13;;;;;;;2.45;1.60;;;6.80;42.00;;;;;;4999910;28;20029;-76
2021/12/26 04:33:39;;;;;;;1.67;1.58;;;6.80;42.00;;;;;;5019436;28;20042;-76
2021/12/26 04:36:05;;;;;;;2.22;2.03;;;6.80;42.10;;;;;;5018286;28;20038;-76
2021/12/26 04:38:32;;;;;;;2.13;1.90;;;6.70;42.10;;;;;;5001049;28;20405;-76
2021/12/26 04:40:58;;;;;;;3.35;1.73;;;6.70;42.20;;;;;;4999369;28;20029;-76
2021/12/26 04:43:39;;;;;;;1.67;1.58;;;6.70;42.20;;;;;;5000381;28;20085;-77
2021/12/26 04:46:34;;;;;;;3.95;2.05;;;6.80;42.30;;;;;;4995511;28;20050;-74
2021/12/26 04:49:06;;;;;;;3.13;1.90;;;6.70;42.30;;;;;;4999531;28;20034;-76
2021/12/26 04:51:32;;;;;;;1.67;1.58;;;6.70;42.30;;;;;;4998847;28;20045;-76
2021/12/26 04:54:02;;;;;;;2.03;1.60;;;6.60;42.30;;;;;;5007657;28;20094;-76
2021/12/26 04:56:29;;;;;;;2.78;1.90;;;6.70;42.60;;;;;;4999586;28;20026;-76
2021/12/26 04:58:54;;;;;;;2.22;1.67;;;6.70;42.60;;;;;;4996502;28;20037;-76
2021/12/26 05:01:21;;;;;;;3.03;1.83;;;6.70;42.60;;;;;;5000164;28;20473;-76
2021/12/26 05:03:47;;;;;;;2.00;1.58;;;6.70;42.70;;;;;;5018132;28;20057;-76
2021/12/26 05:06:13;;;;;;;2.85;2.03;;;6.70;42.70;;;;;;4996345;28;20065;-76
2021/12/26 05:08:38;;;;;;;1.80;1.50;;;6.80;42.70;;;;;;5001492;28;20466;-76
2021/12/26 05:11:04;;;;;;;2.85;1.80;;;6.80;42.70;;;;;;5018317;28;20073;-76
2021/12/26 05:13:31;;;;;;;2.53;1.70;;;6.80;42.70;;;;;;4999358;28;20026;-77
2021/12/26 05:15:57;;;;;;;2.72;1.60;;;6.90;42.60;;;;;;5017338;28;20030;-77
2021/12/26 05:18:23;;;;;;;1.60;1.50;;;6.90;42.50;;;;;;5001098;28;20044;-77
2021/12/26 05:20:56;;;;;;;2.88;2.15;;;7.00;42.50;;;;;;4984448;28;20089;-77
2021/12/26 05:23:23;;;;;;;3.70;1.80;;;7.00;42.40;;;;;;4999303;28;20084;-77
2021/12/26 05:25:49;;;;;;;2.78;1.67;;;7.00;42.50;;;;;;4997443;28;20030;-77
2021/12/26 05:28:16;;;;;;;2.55;1.90;;;7.00;42.50;;;;;;4996895;28;20081;-76
2021/12/26 05:30:44;;;;;;;2.00;1.60;;;7.00;42.50;;;;;;4995185;28;20089;-76
2021/12/26 05:33:25;;;;;;;2.10;1.70;;;7.00;42.40;;;;;;4991256;28;20030;-76
2021/12/26 05:35:55;;;;;;;3.60;2.22;;;7.00;42.40;;;;;;4993807;28;20045;-77
2021/12/26 05:38:23;;;;;;;2.80;1.77;;;7.00;42.30;;;;;;4990299;28;20038;-76
2021/12/26 05:40:49;;;;;;;4.50;2.40;;;6.90;42.30;;;;;;4996977;28;20089;-75
2021/12/26 05:43:15;;;;;;;2.75;2.15;;;7.00;42.30;;;;;;4986480;28;20030;-76
2021/12/26 05:45:42;;;;;;;2.28;1.75;;;6.90;42.30;;;;;;4992886;28;20138;-76
2021/12/26 05:48:21;;;;;;;3.58;2.10;;;6.90;42.30;;;;;;4992962;28;20038;-76
2021/12/26 05:50:49;;;;;;;2.60;2.20;;;6.90;42.40;;;;;;4994752;28;20030;-75
2021/12/26 05:53:35;;;;;;;3.85;2.10;;;6.90;42.40;;;;;;4952479;28;20043;-76
2021/12/26 05:56:02;;;;;;;2.42;2.15;;;6.90;42.40;;;;;;4956302;29;20069;-76
2021/12/26 05:58:28;;;;;;;4.63;2.25;;;6.90;42.50;;;;;;4941896;29;20043;-76
2021/12/26 06:00:55;;;;;;;2.88;2.10;;;6.90;42.50;;;;;;4942449;29;20112;-77
2021/12/26 06:03:21;;;;;;;2.60;2.00;;;6.90;43.10;;;;;;4957454;29;20047;-77
2021/12/26 06:05:47;;;;;;;3.47;1.85;;;6.90;42.60;;;;;;4941768;29;20056;-76
2021/12/26 06:08:13;;;;;;;2.10;1.90;;;6.90;42.50;;;;;;4937924;29;20043;-78
2021/12/26 06:10:41;;;;;;;3.58;2.10;;;7.00;42.50;;;;;;4946847;29;20035;-79
2021/12/26 06:13:07;;;;;;;3.30;2.50;;;7.00;42.50;;;;;;4941202;29;20454;-78
2021/12/26 06:15:33;;;;;;;2.22;1.70;;;7.10;42.50;;;;;;4956539;28;20087;-78
2021/12/26 06:17:59;;;;;;;2.22;1.73;;;7.10;42.40;;;;;;4957196;29;20047;-77
2021/12/26 06:20:54;;;;;;;2.05;1.83;;;7.10;42.40;;;;;;4908638;29;20044;-78
2021/12/26 06:23:50;;;;;;;2.65;2.00;;;7.10;42.40;;;;;;4904006;29;20044;-78
2021/12/26 06:26:32;;;;;;;4.57;2.22;;;7.10;42.40;;;;;;4908965;29;20041;-78
2021/12/26 06:29:02;;;;;;;3.47;2.00;;;7.10;42.50;;;;;;4901365;29;20049;-78
2021/12/26 06:31:54;;;;;;;4.32;2.58;;;7.10;42.50;;;;;;4907528;29;20123;-79
2021/12/26 06:34:56;;;;;;;2.85;1.98;;;7.10;42.50;;;;;;4856259;29;20037;-80
2021/12/26 06:37:41;;;;;;;3.90;2.42;;;7.10;42.50;;;;;;4904864;29;20059;-80
2021/12/26 06:40:25;;;;;;;2.40;2.15;;;7.10;42.60;;;;;;4897642;29;20046;-80
2021/12/26 06:43:11;;;;;;;2.70;2.10;;;7.00;42.60;;;;;;4907816;29;20099;-78
2021/12/26 06:46:09;;;;;;;3.05;1.90;;;7.00;42.60;;;;;;4907777;29;20060;-79
2021/12/26 06:49:10;;;;;;;2.28;1.80;;;7.10;42.70;;;;;;4901705;29;20043;-80
2021/12/26 06:51:36;;;;;;;3.22;2.10;;;7.00;42.60;;;;;;4907089;29;20667;-81
2021/12/26 06:54:02;;;;;;;2.55;1.75;;;7.00;42.60;;;;;;4891709;29;20036;-80
2021/12/26 06:56:28;;;;;;;3.65;2.03;;;7.00;42.70;;;;;;4911327;29;20051;-79
2021/12/26 06:58:54;;;;;;;3.05;2.15;;;7.00;42.80;;;;;;4919129;29;20035;-81
2021/12/26 07:01:20;;;;;;;2.92;2.00;;;7.10;42.80;;;;;;4919051;29;20195;-81
2021/12/26 07:03:46;;;;;;;4.47;2.70;;;7.10;42.80;;;;;;4931270;29;20035;-80
2021/12/26 07:06:12;;;;;;;3.40;2.15;;;7.10;42.90;;;;;;4918265;29;20043;-81
2021/12/26 07:08:39;;;;;;;3.75;2.03;;;7.20;42.90;;;;;;4952043;28;20046;-79
2021/12/26 07:11:04;;;;;;;4.63;2.20;;;7.20;42.90;;;;;;4994196;28;20034;-78
2021/12/26 07:13:31;;;;;;;2.15;1.77;;;7.30;42.80;;;;;;4990835;28;20114;-80
2021/12/26 07:15:57;;;;;;;2.83;2.20;;;7.30;42.80;;;;;;4994191;28;20050;-78
2021/12/26 07:18:23;;;;;;;3.30;2.22;;;7.30;42.80;;;;;;4986714;28;20031;-82
2021/12/26 07:20:49;;;;;;;2.47;2.03;;;7.30;42.80;;;;;;4991797;28;20717;-78
2021/12/26 07:23:34;;;;;;;3.72;2.13;;;7.30;42.80;;;;;;4998626;28;20073;-79
2021/12/26 07:26:06;;;;;;;2.38;2.00;;;7.30;42.80;;;;;;4992610;28;20038;-80
2021/12/26 07:28:32;;;;;;;3.25;2.05;;;7.30;42.70;;;;;;4990832;28;20135;-81
2021/12/26 07:31:28;;;;;;;2.30;1.88;;;7.30;42.70;;;;;;4975805;28;20043;-78
2021/12/26 07:34:02;;;;;;;3.90;1.98;;;7.30;42.70;;;;;;4976281;28;20364;-79
2021/12/26 07:36:29;;;;;;;3.47;2.08;;;7.30;42.70;;;;;;4963132;28;20015;-79
2021/12/26 07:39:02;;;;;;;3.70;1.88;;;7.30;42.80;;;;;;4981728;28;20042;-79
2021/12/26 07:41:30;;;;;;;3.40;2.38;;;7.30;42.80;;;;;;4964363;28;20030;-80
2021/12/26 07:43:56;;;;;;;2.85;2.00;;;7.30;42.90;;;;;;4962513;28;20057;-79
2021/12/26 07:46:41;;;;;;;5.40;2.20;;;7.30;42.90;;;;;;4980031;28;20078;-78
2021/12/26 07:49:17;;;;;;;3.90;1.75;;;7.30;42.80;;;;;;4981113;28;20034;-79
2021/12/26 07:52:09;;;;;;;4.90;2.33;;;7.20;42.80;;;;;;4981068;28;20042;-78
2021/12/26 07:54:54;;;;;;;4.10;2.30;;;7.20;42.80;;;;;;4966461;28;20118;-79
2021/12/26 07:57:44;;;;;;;4.45;2.40;;;7.20;42.80;;;;;;4981605;28;20050;-81
2021/12/26 08:00:48;;;;;;;2.47;1.88;;;7.30;42.90;;;;;;4957430;28;20145;-80
2021/12/26 08:03:30;;;;;;;2.72;2.08;;;7.30;42.80;;;;;;4964385;28;20054;-78
2021/12/26 08:06:19;;;;;;;4.60;1.92;;;7.30;42.80;;;;;;4959532;28;20046;-78
2021/12/26 08:08:49;;;;;;;3.22;2.30;;;7.40;42.90;;;;;;4954922;28;20044;-79
2021/12/26 08:11:17;;;;;;;2.55;1.75;;;7.40;42.70;;;;;;4949412;29;20166;-81
2021/12/26 08:13:44;;;;;;;2.53;1.80;;;7.50;42.60;;;;;;4925161;28;20031;-79
2021/12/26 08:16:09;;;;;;;4.15;2.25;;;7.50;42.60;;;;;;4959324;28;20152;-79
2021/12/26 08:18:35;;;;;;;4.13;2.50;;;7.50;42.70;;;;;;4954514;29;20062;-80
2021/12/26 08:21:02;;;;;;;2.75;1.90;;;7.50;43.30;;;;;;4958642;28;20489;-80
2021/12/26 08:23:28;;;;;;;2.40;2.20;;;7.60;42.70;;;;;;4975671;28;20050;-81
2021/12/26 08:25:55;;;;;;;3.08;2.20;;;7.50;42.60;;;;;;4969282;28;20433;-81
2021/12/26 08:28:22;;;;;;;3.03;2.13;;;7.50;42.60;;;;;;4961308;29;20079;-81
2021/12/26 08:30:48;;;;;;;3.97;2.13;;;7.50;42.60;;;;;;4980646;28;20093;-82
2021/12/26 08:33:14;;;;;;;3.08;2.00;;;7.50;42.60;;;;;;4993641;28;20031;-81
2021/12/26 08:35:42;;;;;;;3.50;1.90;;;7.50;42.60;;;;;;5001670;28;20037;-81
2021/12/26 08:38:09;;;;;;;4.15;2.17;;;7.50;44.90;;;;;;5003954;28;20057;-79
2021/12/26 08:40:35;;;;;;;3.50;2.47;;;7.50;45.40;;;;;;5009893;28;20042;-81
2021/12/26 08:43:01;;;;;;;4.85;2.33;;;7.50;45.60;;;;;;4999897;28;20097;-79
2021/12/26 08:45:27;;;;;;;6.30;2.58;;;7.60;44.60;;;;;;5003410;28;20034;-80
2021/12/26 08:47:55;;;;;;;4.45;2.28;;;7.60;44.20;;;;;;5004719;28;20058;-83
2021/12/26 08:50:22;;;;;;;4.78;2.17;;;7.50;44.00;;;;;;4986787;28;20031;-81
2021/12/26 08:52:49;;;;;;;4.05;2.70;;;7.50;43.80;;;;;;4999631;28;20141;-79
2021/12/26 08:55:16;;;;;;;4.15;2.20;;;7.50;43.60;;;;;;4991622;28;20145;-79
2021/12/26 08:57:42;;;;;;;4.40;1.80;;;7.50;43.60;;;;;;4998752;28;20481;-77
2021/12/26 09:00:10;;;;;;;4.30;2.28;;;7.50;43.60;;;;;;4998168;28;20034;-77
2021/12/26 09:02:36;;;;;;;5.63;2.47;;;7.40;43.60;;;;;;4992357;28;20104;-79
2021/12/26 09:05:03;;;;;;;2.47;2.10;;;7.50;43.60;;;;;;4985416;28;20398;-77
2021/12/26 09:07:29;;;;;;;3.63;2.15;;;7.50;43.60;;;;;;4983659;28;20133;-76
2021/12/26 09:09:56;;;;;;;2.80;1.95;;;7.50;43.60;;;;;;4977514;28;20509;-77
2021/12/26 09:12:22;;;;;;;3.25;2.42;;;7.40;43.70;;;;;;4977278;28;20521;-77
2021/12/26 09:14:48;;;;;;;4.28;1.90;;;7.40;43.60;;;;;;4986480;28;20058;-79
2021/12/26 09:17:14;;;;;;;4.53;2.50;;;7.40;43.70;;;;;;4986081;28;20170;-78
2021/12/26 09:19:40;;;;;;;2.60;2.15;;;7.40;43.80;;;;;;4986355;28;20034;-77
2021/12/26 09:22:10;;;;;;;2.58;2.10;;;7.40;43.70;;;;;;4985065;28;20564;-79
2021/12/26 09:24:36;;;;;;;3.75;2.58;;;7.50;43.70;;;;;;4985578;28;20034;-78
2021/12/26 09:27:03;;;;;;;4.15;2.30;;;7.50;44.20;;;;;;4984429;28;20481;-78
2021/12/26 09:29:29;;;;;;;3.28;2.00;;;7.50;44.20;;;;;;4978899;28;20050;-76
2021/12/26 09:31:56;;;;;;;3.83;2.38;;;7.60;44.20;;;;;;5004056;28;20116;-77
2021/12/26 09:34:24;;;;;;;5.28;2.38;;;7.60;44.10;;;;;;5004563;28;20413;-78
2021/12/26 09:36:50;;;;;;;4.72;2.65;;;7.60;43.80;;;;;;5005052;28;20034;-78
2021/12/26 09:39:17;;;;;;;3.40;2.20;;;7.60;43.80;;;;;;5005929;28;20030;-81
2021/12/26 09:41:43;;;;;;;4.20;1.88;;;7.60;43.80;;;;;;5005022;28;20026;-81
2021/12/26 09:44:10;;;;;;;3.15;2.10;;;7.60;43.70;;;;;;5005957;28;20029;-81
2021/12/26 09:46:36;;;;;;;4.40;2.63;;;7.70;43.60;;;;;;4987724;28;20029;-81
2021/12/26 09:49:04;;;;;;;3.03;2.20;;;7.70;43.60;;;;;;4986795;28;20468;-80
2021/12/26 09:51:29;;;;;;;3.58;2.35;;;7.70;43.90;;;;;;5003300;28;20212;-80
2021/12/26 09:53:56;;;;;;;3.88;1.98;;;7.70;43.90;;;;;;4983535;28;20116;-81
2021/12/26 09:56:21;;;;;;;2.53;1.80;;;7.70;43.80;;;;;;4986616;28;20036;-81
2021/12/26 09:59:05;;;;;;;2.35;1.88;;;7.70;43.80;;;;;;5004082;28;20038;-82
2021/12/26 10:01:37;;;;;;;3.78;1.85;;;7.70;43.80;;;;;;5004326;28;20390;-81
2021/12/26 10:04:24;;;;;;;2.38;1.95;;;7.60;43.80;;;;;;5004264;28;20449;-81
2021/12/26 10:06:56;;;;;;;2.78;2.00;;;7.60;43.80;;;;;;4986534;28;20022;-81
2021/12/26 10:09:22;;;;;;;3.65;2.28;;;7.60;43.70;;;;;;5004637;28;20121;-81
2021/12/26 10:11:52;;;;;;;2.28;1.90;;;7.60;43.80;;;;;;4986627;28;20536;-80
2021/12/26 10:14:23;;;;;;;3.15;1.88;;;7.60;43.80;;;;;;4982984;28;20083;-81
2021/12/26 10:16:51;;;;;;;3.22;1.92;;;7.60;43.90;;;;;;5001071;28;20079;-78
2021/12/26 10:19:17;;;;;;;3.97;2.35;;;7.50;43.80;;;;;;5003844;28;20080;-81
2021/12/26 10:21:43;;;;;;;2.92;1.75;;;7.50;43.80;;;;;;4987246;28;20034;-82
2021/12/26 10:24:23;;;;;;;5.05;2.22;;;7.60;43.80;;;;;;4986164;28;20041;-78
2021/12/26 10:26:55;;;;;;;3.17;2.38;;;7.50;43.80;;;;;;5004025;28;20050;-78
2021/12/26 10:29:26;;;;;;;2.75;1.98;;;7.50;43.80;;;;;;5003833;28;20054;-80
2021/12/26 10:31:56;;;;;;;3.28;1.90;;;7.60;43.80;;;;;;5003781;28;20134;-81
2021/12/26 10:34:40;;;;;;;6.35;2.40;;;7.50;44.40;;;;;;5002982;28;20038;-80
2021/12/26 10:37:17;;;;;;;3.60;2.00;;;7.50;43.90;;;;;;4987088;28;20033;-81
2021/12/26 10:39:49;;;;;;;3.70;2.00;;;7.40;43.90;;;;;;4971182;28;20574;-81
2021/12/26 10:42:19;;;;;;;4.03;1.92;;;7.50;43.90;;;;;;4969745;28;20397;-83
2021/12/26 10:45:02;;;;;;;3.30;2.33;;;7.40;43.90;;;;;;5004924;28;20034;-82
2021/12/26 10:47:33;;;;;;;4.70;2.22;;;7.40;44.00;;;;;;4981463;28;20125;-82
2021/12/26 10:50:09;;;;;;;3.60;2.17;;;7.40;44.00;;;;;;5003950;28;20083;-82
2021/12/26 10:52:36;;;;;;;;;;;7.40;44.10;;;;;;4998926;28;20030;-80
2021/12/26 10:55:09;;;;;;;2.53;2.00;;;7.40;44.00;;;;;;5003812;28;19917;-79
2021/12/26 10:57:41;;;;;;;2.95;2.10;;;7.50;43.90;;;;;;5003493;28;20037;-80
2021/12/26 11:00:17;;;;;;;3.22;2.08;;;7.50;43.90;;;;;;4981347;28;20049;-82
2021/12/26 11:02:45;;;;;;;3.80;2.00;;;7.50;43.90;;;;;;4986164;28;20065;-81
2021/12/26 11:05:18;;;;;;;3.33;2.08;;;7.60;43.80;;;;;;5003734;28;20128;-81
2021/12/26 11:07:51;;;;;;;2.85;1.80;;;7.60;43.70;;;;;;5004482;28;20076;-82
2021/12/26 11:10:31;;;;;;;3.53;2.00;;;7.60;43.70;;;;;;4998864;28;20100;-79
2021/12/26 11:13:00;;;;;;;3.50;1.90;;;7.60;43.70;;;;;;5016439;28;20030;-80
2021/12/26 11:15:34;;;;;;;2.65;2.17;;;7.60;43.60;;;;;;5015436;28;20041;-81
2021/12/26 11:18:03;;;;;;;3.35;2.30;;;7.60;43.60;;;;;;5015637;28;20331;-80
2021/12/26 11:20:36;;;;;;;3.65;2.03;;;7.70;43.60;;;;;;5016185;28;20029;-80
2021/12/26 11:23:09;;;;;;;3.33;2.20;;;7.60;43.60;;;;;;5015321;28;20034;-79
2021/12/26 11:25:45;;;;;;;3.35;2.22;;;7.70;43.70;;;;;;4998695;28;20038;-82
2021/12/26 11:28:14;;;;;;;2.90;2.00;;;7.60;43.60;;;;;;4999020;28;20070;-81
2021/12/26 11:30:42;;;;;;;4.30;2.47;;;7.60;43.70;;;;;;5000777;28;20049;-80
2021/12/26 11:33:09;;;;;;;5.05;2.40;;;7.60;43.70;;;;;;5014484;28;20034;-79
2021/12/26 11:35:37;;;;;;;4.53;2.40;;;7.60;43.80;;;;;;5013903;28;20026;-84
2021/12/26 11:38:04;;;;;;;4.72;2.17;;;7.60;43.80;;;;;;5014294;28;20465;-84
2021/12/26 11:40:51;;;;;;;3.75;2.17;;;7.60;43.80;;;;;;5017997;28;20498;-82
2021/12/26 11:43:55;;;;;;;3.97;2.28;;;7.60;43.90;;;;;;4982830;28;20066;-83
2021/12/26 11:47:26;;;;;;;3.85;2.33;;;7.50;44.10;;;;;;4983590;28;20025;-83
2021/12/26 11:50:25;;;;;;;3.58;1.90;;;7.50;44.00;;;;;;4922511;29;20048;-89
2021/12/26 11:53:43;;;;;;;3.58;2.17;;;7.50;49.50;;;;;;4927905;29;20084;-89
2021/12/26 11:56:36;;;;;;;4.80;2.17;;;7.50;51.80;;;;;;4926845;29;20110;-90
2021/12/26 11:59:08;;;;;;;4.53;2.65;;;7.50;50.70;;;;;;4927915;29;20028;-88
2021/12/26 12:01:40;;;;;;;4.25;2.50;;;7.60;49.40;;;;;;4910978;29;20040;-85
2021/12/26 12:04:18;;;;;;;4.28;2.17;;;7.60;48.30;;;;;;4920069;29;20128;-83
2021/12/26 12:06:56;;;;;;;4.85;2.45;;;7.70;47.50;;;;;;4906079;29;20060;-84
2021/12/26 12:09:34;;;;;;;3.72;2.35;;;7.70;46.90;;;;;;4920169;29;20140;-86
2021/12/26 12:12:09;;;;;;;4.00;2.33;;;7.70;46.40;;;;;;4929373;29;20023;-84
2021/12/26 12:14:57;;;;;;;3.47;2.47;;;7.70;46.00;;;;;;4916592;29;20208;-90
2021/12/26 12:17:30;;;;;;;3.33;2.25;;;7.70;45.70;;;;;;4915928;29;20142;-86
2021/12/26 12:20:08;;;;;;;2.70;2.00;;;7.60;45.70;;;;;;4930960;29;20048;-87
2021/12/26 12:22:34;;;;;;;4.40;2.40;;;7.50;45.60;;;;;;4931692;29;20040;-87
2021/12/26 12:25:34;;;;;;;5.32;2.58;;;7.50;45.50;;;;;;4917214;29;20096;-85
2021/12/26 12:28:25;;;;;;;4.85;2.35;;;7.50;45.30;;;;;;4973918;28;20042;-89
2021/12/26 12:31:11;;;;;;;3.88;2.40;;;7.50;45.20;;;;;;5023300;28;20038;-87
2021/12/26 12:33:38;;;;;;;3.95;2.40;;;7.50;45.10;;;;;;4987827;28;20432;-82
2021/12/26 12:36:27;;;;;;;4.00;2.53;;;7.40;45.10;;;;;;5011633;28;20042;-85
2021/12/26 12:38:53;;;;;;;3.17;2.20;;;7.40;45.10;;;;;;5017881;28;20048;-85
2021/12/26 12:41:39;;;;;;;3.30;2.30;;;7.40;45.00;;;;;;5019757;28;20044;-89
2021/12/26 12:44:34;;;;;;;3.25;2.55;;;7.40;45.00;;;;;;5019417;28;20157;-86
2021/12/26 12:47:04;;;;;;;2.35;2.08;;;7.40;45.00;;;;;;5001222;28;20049;-87
2021/12/26 12:49:51;;;;;;;2.65;1.98;;;7.40;45.00;;;;;;5017699;28;20026;-82
2021/12/26 12:52:39;;;;;;;3.58;2.20;;;7.40;45.00;;;;;;5016277;28;20040;-88
2021/12/26 12:55:15;;;;;;;5.55;2.30;;;7.50;44.80;;;;;;4998416;28;20405;-85
2021/12/26 12:57:45;;;;;;;;;;;7.50;44.70;;;;;;5018581;28;20045;-89
2021/12/26 13:00:26;;;;;;;3.10;1.98;;;7.50;44.70;;;;;;5002375;28;20459;-85
2021/12/26 13:02:54;;;;;;;4.07;1.95;;;7.50;44.70;;;;;;5017831;28;20029;-84
2021/12/26 13:05:31;;;;;;;4.28;2.78;;;7.50;44.80;;;;;;5018522;28;20093;-85
2021/12/26 13:07:59;;;;;;;3.25;2.17;;;7.50;44.80;;;;;;5019071;28;20026;-89
2021/12/26 13:10:26;;;;;;;2.75;1.90;;;7.50;44.90;;;;;;5017426;28;20493;-88
2021/12/26 13:12:52;;;;;;;3.35;2.35;;;7.50;44.80;;;;;;5017609;28;20045;-88
2021/12/26 13:15:18;;;;;;;4.82;2.17;;;7.50;44.80;;;;;;5017398;28;20034;-83
2021/12/26 13:17:45;;;;;;;2.92;2.20;;;7.50;44.80;;;;;;4997317;28;20101;-83
2021/12/26 13:20:23;;;;;;;2.72;2.28;;;7.40;44.80;;;;;;5017607;28;20042;-84
2021/12/26 13:23:04;;;;;;;3.42;2.00;;;7.40;44.80;;;;;;5018508;28;20042;-84
2021/12/26 13:25:38;;;;;;;4.45;2.65;;;7.40;45.40;;;;;;5012476;28;20080;-82